CVB weather

Castroville Municipal Airport
Castroville, Texas, United States

Public forecast

Using degrees Fahrenheit for public forecast. Weather courtesy of forecast.io.

METAR (pilot weather report)

Retrieved 2017/10/21 12:35 UTC (24 minutes ago):

KCVB 211235Z AUTO 18008KT 10SM SCT010 OVC014 22/22 A2994 RMK AO2 T02220215

TAF (pilot weather forecast)

Closest forecast is Lackland Air Force Base, 14.3 nm (26.6 km) E. Retrieved 2017/10/21 09:03 UTC (4 hours ago):

TAF KSKF 210900Z 2109/2215 16006KT 9999 OVC005 QNH2986INS BECMG 2114/2115 18012KT 9999 SCT010 BKN030 QNH2984INS BECMG 2117/2118 17012G18KT 9999 SCT035 QNH2984INS BECMG 2123/2124 16009KT 9999 BKN030 QNH2983INS BECMG 2205/2206 18009KT 9999 BKN010 QNH2981INS BECMG 2208/2209 25012KT 6000 -SHRA OVC005 QNH2990INS TEMPO 2210/2213 VRB15G25KT 3200 -TSRA OVC004CB BECMG 2213/2214 33012G20KT 9999 NSW FEW025 QNH2998INS TX30/2121Z TN21/2112Z